Airport View

Enter AWOS ICAO identifier for current METAR.

ex. KFNL

KDNN 212335Z AUTO 00000KT 10SM CLR 29/08 A3020 RMK AO2

21 Sep 2019 23:45

Frequency: 127.65

Phone: 706-278-7010

Other Area AWOS: KCZL - K49A - KFGU - K9A5

TAF KCHA 211720Z 2118/2218 13004KT P6SM FEW050 FM220000 00000KT P6SM SKC